createdAt,value
2019-03-28T00:02:01.616Z,96711.95
2019-03-28T00:04:33.750Z,96715.27
2019-03-28T00:07:05.711Z,96722.22
2019-03-28T00:09:37.582Z,96715.23
2019-03-28T00:12:09.525Z,96707.30
2019-03-28T00:14:41.327Z,96709.89
2019-03-28T00:17:13.129Z,96711.11
2019-03-28T00:19:44.970Z,96702.30
2019-03-28T00:22:27.308Z,96704.52
2019-03-28T00:25:03.757Z,96702.38
2019-03-28T00:27:35.673Z,96699.71
2019-03-28T00:30:08.132Z,96700.72
2019-03-28T00:32:39.929Z,96698.45
2019-03-28T00:35:12.859Z,96706.13
2019-03-28T00:37:44.733Z,96698.95
2019-03-28T00:40:16.773Z,96702.84
2019-03-28T00:42:48.586Z,96705.92
2019-03-28T00:45:20.477Z,96705.77
2019-03-28T00:47:52.457Z,96703.47
2019-03-28T00:50:24.257Z,96702.02
2019-03-28T00:52:56.133Z,96699.31
2019-03-28T00:55:28.123Z,96705.19
2019-03-28T00:57:59.899Z,96698.05
2019-03-28T01:00:31.891Z,96706.17
2019-03-28T01:03:03.826Z,96700.31
2019-03-28T01:05:35.865Z,96706.63
2019-03-28T01:08:07.979Z,96707.45
2019-03-28T01:10:39.769Z,96712.03
2019-03-28T01:13:11.581Z,96706.86
2019-03-28T01:15:43.385Z,96705.83
2019-03-28T01:18:15.246Z,96707.06
2019-03-28T01:20:47.127Z,96705.90
2019-03-28T01:23:18.992Z,96705.12
2019-03-28T01:25:51.109Z,96706.57
2019-03-28T01:28:23.961Z,96705.34
2019-03-28T01:30:55.954Z,96703.81
2019-03-28T01:33:27.751Z,96698.81
2019-03-28T01:35:59.557Z,96696.56
2019-03-28T01:38:31.348Z,96700.28
2019-03-28T01:41:03.254Z,96701.73
2019-03-28T01:43:35.205Z,96696.33
2019-03-28T01:46:08.190Z,96695.71
2019-03-28T01:48:40.185Z,96709.13
2019-03-28T01:51:12.336Z,96699.95
2019-03-28T01:53:44.306Z,96700.31
2019-03-28T01:56:16.174Z,96691.31
2019-03-28T01:58:48.122Z,96688.84
2019-03-28T02:01:19.918Z,96686.00
2019-03-28T02:03:51.961Z,96687.39
2019-03-28T02:06:24.921Z,96693.13
2019-03-28T02:08:56.895Z,96691.91
2019-03-28T02:11:28.889Z,96691.77
2019-03-28T02:14:00.704Z,96686.06
2019-03-28T02:16:32.731Z,96684.25
2019-03-28T02:19:05.779Z,96692.27
2019-03-28T02:21:38.143Z,96688.32
2019-03-28T02:24:09.981Z,96689.00
2019-03-28T02:26:41.839Z,96697.85
2019-03-28T02:29:13.731Z,96696.32
2019-03-28T02:31:45.547Z,96694.14
2019-03-28T02:34:17.345Z,96692.53
2019-03-28T02:36:49.167Z,96692.31
2019-03-28T02:39:21.028Z,96701.32
2019-03-28T02:41:53.012Z,96699.86
2019-03-28T02:44:24.958Z,96695.99
2019-03-28T02:46:56.953Z,96693.95
2019-03-28T02:49:28.716Z,96688.16
2019-03-28T02:52:00.677Z,96683.44
2019-03-28T02:54:32.485Z,96690.51
2019-03-28T02:57:04.524Z,96687.47
2019-03-28T02:59:36.332Z,96696.02
2019-03-28T03:02:08.249Z,96686.19
2019-03-28T03:04:40.215Z,96689.90
2019-03-28T03:07:12.105Z,96692.73
2019-03-28T03:09:43.882Z,96689.78
2019-03-28T03:12:15.764Z,96691.80
2019-03-28T03:14:47.587Z,96694.32
2019-03-28T03:17:19.467Z,96698.13
2019-03-28T03:19:51.874Z,96694.66
2019-03-28T03:22:23.695Z,96701.57
2019-03-28T03:24:55.627Z,96693.13
2019-03-28T03:27:27.542Z,96688.77
2019-03-28T03:29:59.518Z,96682.62
2019-03-28T03:32:31.495Z,96687.23
2019-03-28T03:35:03.384Z,96688.97
2019-03-28T03:37:35.352Z,96683.36
2019-03-28T03:40:08.865Z,96683.23
2019-03-28T03:42:40.651Z,96684.48
2019-03-28T03:45:12.799Z,96681.66
2019-03-28T03:47:45.763Z,96681.94
2019-03-28T03:50:28.432Z,96678.39
2019-03-28T03:53:00.331Z,96679.77
2019-03-28T03:55:32.237Z,96683.55
2019-03-28T03:58:15.574Z,96684.28
2019-03-28T04:00:39.181Z,96685.81
2019-03-28T04:03:11.139Z,96682.23
2019-03-28T04:05:43.086Z,96693.81
2019-03-28T04:08:14.965Z,96693.63
2019-03-28T04:10:46.829Z,96692.69
2019-03-28T04:13:18.951Z,96694.48
2019-03-28T04:15:51.016Z,96685.73
2019-03-28T04:18:22.900Z,96683.31
2019-03-28T04:20:54.701Z,96691.09
2019-03-28T04:23:26.613Z,96690.99
2019-03-28T04:25:58.417Z,96687.84
2019-03-28T04:28:32.030Z,96686.91
2019-03-28T04:31:03.864Z,96693.64
2019-03-28T04:33:35.840Z,96688.81
2019-03-28T04:36:07.917Z,96694.19
2019-03-28T04:38:39.718Z,96696.56
2019-03-28T04:41:11.579Z,96693.87
2019-03-28T04:43:43.456Z,96692.77
2019-03-28T04:46:16.214Z,96695.07
2019-03-28T04:48:50.660Z,96695.59
2019-03-28T04:51:21.792Z,96691.97
2019-03-28T04:53:56.314Z,96691.16
2019-03-28T04:56:27.512Z,96693.74
2019-03-28T04:58:59.494Z,96694.30
2019-03-28T05:01:31.347Z,96698.55
2019-03-28T05:04:03.225Z,96697.39
2019-03-28T05:06:37.872Z,96692.77
2019-03-28T05:09:08.990Z,96695.72
2019-03-28T05:11:40.867Z,96695.36
2019-03-28T05:14:12.713Z,96699.73
2019-03-28T05:16:44.537Z,96700.59
2019-03-28T05:19:16.330Z,96704.50
2019-03-28T05:21:48.381Z,96713.28
2019-03-28T05:24:20.320Z,96710.17
2019-03-28T05:26:52.573Z,96712.78
2019-03-28T05:29:24.537Z,96712.67
2019-03-28T05:31:56.619Z,96713.16
2019-03-28T05:34:28.541Z,96713.66
2019-03-28T05:37:00.439Z,96714.30
2019-03-28T05:39:32.261Z,96720.72
2019-03-28T05:42:04.347Z,96721.53
2019-03-28T05:44:36.247Z,96724.23
2019-03-28T05:47:08.188Z,96726.87
2019-03-28T05:49:39.959Z,96723.53
2019-03-28T05:52:11.919Z,96725.15
2019-03-28T05:54:43.716Z,96727.76
2019-03-28T05:57:15.579Z,96725.00
2019-03-28T05:59:47.387Z,96724.64
2019-03-28T06:02:19.287Z,96729.98
2019-03-28T06:04:51.108Z,96722.83
2019-03-28T06:07:22.891Z,96730.08
2019-03-28T06:09:54.764Z,96735.91
2019-03-28T06:12:26.644Z,96734.83
2019-03-28T06:14:58.531Z,96732.91
2019-03-28T06:17:30.411Z,96734.34
2019-03-28T06:20:02.311Z,96740.41
2019-03-28T06:22:34.281Z,96739.31
2019-03-28T06:25:06.611Z,96733.80
2019-03-28T06:27:38.467Z,96735.22
2019-03-28T06:30:12.958Z,96734.28
2019-03-28T06:32:44.763Z,96732.71
2019-03-28T06:35:16.735Z,96733.70
2019-03-28T06:37:51.307Z,96741.19
2019-03-28T06:40:22.300Z,96738.34
2019-03-28T06:42:54.239Z,96736.03
2019-03-28T06:45:26.247Z,96734.11
2019-03-28T06:47:58.038Z,96732.47
2019-03-28T06:50:29.831Z,96734.06
2019-03-28T06:53:01.931Z,96733.78
2019-03-28T06:55:36.874Z,96739.02
2019-03-28T06:58:08.690Z,96739.27
2019-03-28T07:00:40.486Z,96738.77
2019-03-28T07:03:12.923Z,96729.47
2019-03-28T07:05:44.871Z,96731.86
2019-03-28T07:08:16.851Z,96729.80
2019-03-28T07:10:48.938Z,96732.56
2019-03-28T07:13:20.811Z,96740.33
2019-03-28T07:15:52.801Z,96738.65
2019-03-28T07:18:24.825Z,96742.67
2019-03-28T07:20:56.936Z,96736.00
2019-03-28T07:23:29.066Z,96730.67
2019-03-28T07:26:00.906Z,96735.42
2019-03-28T07:28:33.551Z,96738.08
2019-03-28T07:31:05.897Z,96733.16
2019-03-28T07:33:37.835Z,96741.20
2019-03-28T07:36:09.810Z,96735.70
2019-03-28T07:38:41.718Z,96734.31
2019-03-28T07:41:16.367Z,96735.44
2019-03-28T07:43:47.206Z,96737.95
2019-03-28T07:46:20.261Z,96725.28
2019-03-28T07:48:52.245Z,96728.82
2019-03-28T07:51:24.065Z,96727.88
2019-03-28T07:53:55.840Z,96723.72
2019-03-28T07:56:27.667Z,96714.11
2019-03-28T07:58:59.533Z,96705.42
2019-03-28T08:01:31.422Z,96704.34
2019-03-28T08:04:03.229Z,96712.47
2019-03-28T08:06:48.781Z,96713.12
2019-03-28T08:09:11.212Z,96707.27
2019-03-28T08:11:43.189Z,96710.78
2019-03-28T08:14:15.171Z,96721.28
2019-03-28T08:16:47.080Z,96714.20
2019-03-28T08:19:18.988Z,96733.38
2019-03-28T08:21:51.040Z,96726.13
2019-03-28T08:24:23.260Z,96726.60
2019-03-28T08:26:55.075Z,96730.93
2019-03-28T08:29:26.848Z,96729.69
2019-03-28T08:31:59.579Z,96731.48
2019-03-28T08:34:31.527Z,96734.42
2019-03-28T08:37:03.973Z,96729.85
2019-03-28T08:39:35.996Z,96727.50
2019-03-28T08:42:07.982Z,96726.00
2019-03-28T08:44:39.927Z,96729.59
2019-03-28T08:47:11.968Z,96732.97
2019-03-28T08:49:44.058Z,96729.16
2019-03-28T08:52:15.912Z,96733.39
2019-03-28T08:54:47.817Z,96734.86
2019-03-28T08:57:19.687Z,96729.59
2019-03-28T08:59:51.509Z,96726.03
2019-03-28T09:02:23.369Z,96718.78
2019-03-28T09:04:56.441Z,96721.06
2019-03-28T09:07:28.405Z,96714.06
2019-03-28T09:10:00.369Z,96722.36
2019-03-28T09:12:35.142Z,96712.89
2019-03-28T09:17:56.078Z,96720.01
2019-03-28T09:20:28.292Z,96713.55
2019-03-28T09:23:00.190Z,96706.47
2019-03-28T09:25:32.026Z,96708.78
2019-03-28T09:28:03.911Z,96712.14
2019-03-28T09:30:49.742Z,96710.34
2019-03-28T09:33:19.266Z,96709.93
2019-03-28T09:35:51.497Z,96712.67
2019-03-28T09:38:23.881Z,96714.59
2019-03-28T09:40:55.927Z,96714.01
2019-03-28T09:43:27.895Z,96713.35
2019-03-28T09:46:00.573Z,96715.70
2019-03-28T09:48:33.288Z,96705.72
2019-03-28T09:51:05.276Z,96706.41
2019-03-28T09:53:37.175Z,96705.52
2019-03-28T09:56:09.051Z,96708.06
2019-03-28T09:58:41.018Z,96710.88
2019-03-28T10:01:13.213Z,96701.13
2019-03-28T10:03:45.047Z,96703.75
2019-03-28T10:06:16.878Z,96704.02
2019-03-28T10:08:48.814Z,96700.46
2019-03-28T10:11:20.684Z,96700.52
2019-03-28T10:13:53.625Z,96697.29
2019-03-28T10:16:25.589Z,96689.95
2019-03-28T10:18:57.388Z,96687.64
2019-03-28T10:21:29.285Z,96684.52
2019-03-28T10:24:01.116Z,96681.48
2019-03-28T10:26:33.036Z,96688.63
2019-03-28T10:29:05.215Z,96682.31
2019-03-28T10:31:37.163Z,96680.50
2019-03-28T10:34:09.141Z,96683.81
2019-03-28T10:36:41.186Z,96680.34
2019-03-28T10:39:13.046Z,96675.80
2019-03-28T10:41:45.141Z,96664.67
2019-03-28T10:44:16.967Z,96663.86
2019-03-28T10:46:48.867Z,96666.24
2019-03-28T10:49:20.823Z,96671.94
2019-03-28T10:51:52.975Z,96670.00
2019-03-28T10:54:25.894Z,96670.83
2019-03-28T10:56:58.177Z,96677.61
2019-03-28T10:59:30.306Z,96676.83
2019-03-28T11:02:02.188Z,96663.45
2019-03-28T11:04:34.104Z,96666.05
2019-03-28T11:07:06.153Z,96662.36
2019-03-28T11:09:39.140Z,96658.00
2019-03-28T11:12:11.081Z,96664.03
2019-03-28T11:14:46.127Z,96667.66
2019-03-28T11:17:16.543Z,96663.44
2019-03-28T11:19:48.394Z,96665.20
2019-03-28T11:22:20.407Z,96670.39
2019-03-28T11:24:52.569Z,96665.63
2019-03-28T11:27:24.558Z,96655.34
2019-03-28T11:29:56.588Z,96647.91
2019-03-28T11:32:28.494Z,96652.16
2019-03-28T11:35:00.423Z,96642.50
2019-03-28T11:37:32.322Z,96646.34
2019-03-28T11:40:05.214Z,96646.69
2019-03-28T11:42:37.096Z,96655.83
2019-03-28T11:45:10.028Z,96646.59
2019-03-28T11:47:42.285Z,96652.59
2019-03-28T11:50:17.089Z,96656.00
2019-03-28T11:52:48.476Z,96652.48
2019-03-28T11:55:20.337Z,96652.03
2019-03-28T11:57:52.273Z,96657.13
2019-03-28T12:00:24.256Z,96651.52
2019-03-28T12:02:56.247Z,96644.59
2019-03-28T12:05:28.107Z,96647.09
2019-03-28T12:07:59.934Z,96645.50
2019-03-28T12:10:31.949Z,96645.22
2019-03-28T12:13:03.926Z,96637.77
2019-03-28T12:15:35.843Z,96636.14
2019-03-28T12:18:07.839Z,96633.16
2019-03-28T12:20:39.861Z,96631.91
2019-03-28T12:23:11.720Z,96635.52
2019-03-28T12:25:43.706Z,96618.09
2019-03-28T12:28:17.545Z,96615.78
2019-03-28T12:30:49.638Z,96618.52
2019-03-28T12:33:21.644Z,96613.88
2019-03-28T12:35:53.664Z,96614.77
2019-03-28T12:38:25.603Z,96614.95
2019-03-28T12:40:57.522Z,96609.05
2019-03-28T12:43:29.468Z,96615.25
2019-03-28T12:46:01.373Z,96609.78
2019-03-28T12:48:33.221Z,96624.23
2019-03-28T12:51:05.247Z,96623.02
2019-03-28T12:53:37.407Z,96614.06
2019-03-28T12:56:09.284Z,96618.90
2019-03-28T12:58:41.304Z,96624.03
2019-03-28T13:01:13.339Z,96613.35
2019-03-28T13:03:46.439Z,96616.66
2019-03-28T13:06:18.524Z,96621.58
2019-03-28T13:08:50.425Z,96613.09
2019-03-28T13:11:22.273Z,96611.73
2019-03-28T13:13:55.413Z,96610.47
2019-03-28T13:16:27.265Z,96613.19
2019-03-28T13:18:59.126Z,96606.58
2019-03-28T13:21:31.053Z,96603.73
2019-03-28T13:24:03.078Z,96609.77
2019-03-28T13:26:35.019Z,96607.55
2019-03-28T13:29:07.199Z,96616.17
2019-03-28T13:31:39.099Z,96609.24
2019-03-28T13:34:11.106Z,96608.70
2019-03-28T13:36:43.031Z,96602.52
2019-03-28T13:39:14.899Z,96609.86
2019-03-28T13:41:46.749Z,96602.08
2019-03-28T13:44:18.581Z,96597.45
2019-03-28T13:46:50.605Z,96605.50
2019-03-28T13:49:22.712Z,96601.83
2019-03-28T13:51:54.767Z,96603.59
2019-03-28T13:54:26.724Z,96601.70
2019-03-28T13:56:58.580Z,96590.94
2019-03-28T13:59:31.103Z,96588.42
2019-03-28T14:02:06.713Z,96592.47
2019-03-28T14:04:37.716Z,96596.47
2019-03-28T14:07:09.615Z,96601.80
2019-03-28T14:09:42.536Z,96608.17
2019-03-28T14:12:14.549Z,96609.70
2019-03-28T14:14:46.438Z,96606.41
2019-03-28T14:17:18.265Z,96603.75
2019-03-28T14:19:50.304Z,96600.90
2019-03-28T14:22:22.224Z,96602.83
2019-03-28T14:24:54.156Z,96600.38
2019-03-28T14:27:26.086Z,96605.97
2019-03-28T14:29:58.156Z,96594.82
2019-03-28T14:32:32.963Z,96605.25
2019-03-28T14:35:03.682Z,96596.44
2019-03-28T14:37:35.588Z,96601.53
2019-03-28T14:40:08.868Z,96597.28
2019-03-28T14:42:41.261Z,96598.37
2019-03-28T14:45:13.991Z,96597.11
2019-03-28T14:47:46.177Z,96591.16
2019-03-28T14:50:32.870Z,96586.53
2019-03-28T14:53:05.155Z,96581.66
2019-03-28T14:55:38.327Z,96574.55
2019-03-28T14:58:10.433Z,96576.94
2019-03-28T15:00:48.289Z,96578.00
2019-03-28T15:03:26.256Z,96580.71
2019-03-28T15:05:54.219Z,96582.76
2019-03-28T15:08:26.145Z,96588.53
2019-03-28T15:10:58.189Z,96585.94
2019-03-28T15:13:30.090Z,96595.97
2019-03-28T15:16:02.227Z,96589.48
2019-03-28T15:18:34.251Z,96587.80
2019-03-28T15:21:06.320Z,96592.44
2019-03-28T15:23:38.453Z,96597.89
2019-03-28T15:26:10.296Z,96589.86
2019-03-28T15:28:42.331Z,96587.96
2019-03-28T15:31:14.350Z,96598.97
2019-03-28T15:33:46.212Z,96592.70
2019-03-28T15:36:18.169Z,96596.23
2019-03-28T15:38:50.082Z,96592.09
2019-03-28T15:41:23.371Z,96597.51
2019-03-28T15:43:55.278Z,96587.84
2019-03-28T15:46:27.550Z,96583.55
2019-03-28T15:48:59.391Z,96595.74
2019-03-28T15:51:31.438Z,96593.98
2019-03-28T15:54:03.484Z,96585.45
2019-03-28T15:56:35.508Z,96592.12
2019-03-28T15:59:08.451Z,96587.59
2019-03-28T16:01:40.521Z,96588.68
2019-03-28T16:04:13.648Z,96586.61
2019-03-28T16:06:45.627Z,96582.36
2019-03-28T16:09:18.785Z,96591.38
2019-03-28T16:12:02.064Z,96593.70
2019-03-28T16:14:24.603Z,96591.44
2019-03-28T16:16:56.797Z,96588.13
2019-03-28T16:19:28.816Z,96591.83
2019-03-28T16:22:03.934Z,96590.18
2019-03-28T16:24:34.371Z,96590.31
2019-03-28T16:27:06.495Z,96590.44
2019-03-28T16:29:38.484Z,96596.19
2019-03-28T16:32:10.401Z,96592.63
2019-03-28T16:34:43.572Z,96599.63
2019-03-28T16:37:15.616Z,96603.30
2019-03-28T16:39:49.901Z,96604.42
2019-03-28T16:42:21.183Z,96607.38
2019-03-28T16:44:53.245Z,96602.81
2019-03-28T16:47:25.329Z,96603.33
2019-03-28T16:49:58.413Z,96607.14
2019-03-28T16:52:30.258Z,96605.31
2019-03-28T16:55:02.177Z,96613.74
2019-03-28T16:57:35.344Z,96612.36
2019-03-28T17:00:11.375Z,96613.61
2019-03-28T17:02:43.972Z,96612.00
2019-03-28T17:05:16.159Z,96616.65
2019-03-28T17:07:48.653Z,96619.25
2019-03-28T17:10:47.039Z,96616.77
2019-03-28T17:13:20.485Z,96614.86
2019-03-28T17:15:52.486Z,96617.08
2019-03-28T17:18:25.278Z,96621.19
2019-03-28T17:20:57.289Z,96617.73
2019-03-28T17:23:29.385Z,96606.28
2019-03-28T17:26:01.395Z,96613.52
2019-03-28T17:28:33.539Z,96613.61
2019-03-28T17:31:05.559Z,96608.41
2019-03-28T17:33:37.670Z,96621.41
2019-03-28T17:36:09.705Z,96614.34
2019-03-28T17:38:41.623Z,96619.58
2019-03-28T17:41:13.638Z,96622.36
2019-03-28T17:43:45.490Z,96622.85
2019-03-28T17:46:18.373Z,96630.61
2019-03-28T17:48:50.645Z,96632.94
2019-03-28T17:51:22.833Z,96631.89
2019-03-28T17:53:56.287Z,96628.69
2019-03-28T17:56:28.294Z,96637.43
2019-03-28T17:59:00.117Z,96641.58
2019-03-28T18:01:31.994Z,96648.28
2019-03-28T18:04:03.906Z,96646.16
2019-03-28T18:06:36.041Z,96646.16
2019-03-28T18:09:09.644Z,96648.37
2019-03-28T18:11:41.770Z,96652.38
2019-03-28T18:14:13.723Z,96652.54
2019-03-28T18:16:45.681Z,96659.83
2019-03-28T18:19:17.614Z,96664.73
2019-03-28T18:22:02.398Z,96667.98
2019-03-28T18:24:23.523Z,96669.56
2019-03-28T18:26:55.377Z,96672.95
2019-03-28T18:29:27.693Z,96666.03
2019-03-28T18:32:00.025Z,96680.23
2019-03-28T18:34:32.922Z,96679.84
2019-03-28T18:37:04.805Z,96678.43
2019-03-28T18:39:36.693Z,96684.02
2019-03-28T18:42:08.631Z,96683.66
2019-03-28T18:44:41.676Z,96684.80
2019-03-28T18:47:13.747Z,96690.98
2019-03-28T18:49:45.724Z,96688.44
2019-03-28T18:52:17.579Z,96688.03
2019-03-28T18:54:49.470Z,96686.14
2019-03-28T18:57:21.491Z,96682.11
2019-03-28T18:59:53.575Z,96680.02
2019-03-28T19:02:25.409Z,96686.14
2019-03-28T19:04:57.338Z,96682.00
2019-03-28T19:07:29.247Z,96687.55
2019-03-28T19:10:01.086Z,96693.23
2019-03-28T19:12:33.123Z,96691.34
2019-03-28T19:15:06.288Z,96690.41
2019-03-28T19:17:38.547Z,96691.38
2019-03-28T19:20:12.114Z,96684.77
2019-03-28T19:22:44.178Z,96691.58
2019-03-28T19:25:18.315Z,96692.20
2019-03-28T19:27:50.354Z,96683.95
2019-03-28T19:30:32.925Z,96698.03
2019-03-28T19:33:07.001Z,96691.55
2019-03-28T19:35:40.790Z,96693.63
2019-03-28T19:38:13.157Z,96707.70
2019-03-28T19:40:45.245Z,96704.34
2019-03-28T19:43:20.754Z,96704.63
2019-03-28T19:45:50.721Z,96705.48
2019-03-28T19:48:22.828Z,96704.94
2019-03-28T19:50:55.733Z,96707.30
2019-03-28T19:53:27.633Z,96705.54
2019-03-28T19:55:59.696Z,96700.92
2019-03-28T19:58:34.872Z,96700.91
2019-03-28T20:01:06.146Z,96701.95
2019-03-28T20:03:38.027Z,96703.94
2019-03-28T20:06:21.628Z,96702.42
2019-03-28T20:08:47.002Z,96700.12
2019-03-28T20:11:18.946Z,96697.75
2019-03-28T20:13:52.055Z,96704.27
2019-03-28T20:16:24.038Z,96702.99
2019-03-28T20:18:56.616Z,96700.23
2019-03-28T20:21:28.541Z,96704.89
2019-03-28T20:24:00.392Z,96706.74
2019-03-28T20:26:32.234Z,96710.02
2019-03-28T20:29:04.412Z,96709.92
2019-03-28T20:31:36.427Z,96715.20
2019-03-28T20:34:08.704Z,96719.09
2019-03-28T20:36:43.837Z,96719.86
2019-03-28T20:39:14.600Z,96725.20
2019-03-28T20:41:46.516Z,96717.36
2019-03-28T20:44:18.974Z,96723.92
2019-03-28T20:46:51.133Z,96725.70
2019-03-28T20:49:23.268Z,96729.81
2019-03-28T20:51:55.346Z,96731.37
2019-03-28T20:54:27.220Z,96732.77
2019-03-28T20:56:59.274Z,96741.22
2019-03-28T20:59:31.501Z,96738.77
2019-03-28T21:02:05.865Z,96741.05
2019-03-28T21:04:39.328Z,96746.56
2019-03-28T21:07:11.513Z,96748.31
2019-03-28T21:09:43.704Z,96743.20
2019-03-28T21:12:15.801Z,96743.16
2019-03-28T21:14:48.097Z,96745.84
2019-03-28T21:17:20.135Z,96749.47
2019-03-28T21:19:52.023Z,96747.69
2019-03-28T21:22:24.118Z,96741.41
2019-03-28T21:24:56.204Z,96740.86
2019-03-28T21:27:28.827Z,96739.48
2019-03-28T21:30:00.796Z,96741.64
2019-03-28T21:32:32.706Z,96738.39
2019-03-28T21:35:04.893Z,96736.80
2019-03-28T21:37:36.711Z,96726.28
2019-03-28T21:40:09.315Z,96722.94
2019-03-28T21:42:41.314Z,96729.20
2019-03-28T21:45:14.948Z,96731.66
2019-03-28T21:47:47.163Z,96725.61
2019-03-28T21:50:19.126Z,96728.91
2019-03-28T21:52:51.041Z,96733.71
2019-03-28T21:55:23.092Z,96735.22
2019-03-28T21:57:55.158Z,96732.80
2019-03-28T22:00:27.129Z,96726.39
2019-03-28T22:02:59.065Z,96736.04
2019-03-28T22:05:31.091Z,96733.28
2019-03-28T22:08:03.131Z,96725.73
2019-03-28T22:10:35.169Z,96725.48
2019-03-28T22:13:07.445Z,96724.36
2019-03-28T22:15:40.242Z,96720.31
2019-03-28T22:18:12.280Z,96718.61
2019-03-28T22:20:44.369Z,96715.16
2019-03-28T22:23:16.434Z,96706.30
2019-03-28T22:25:48.475Z,96702.48
2019-03-28T22:28:20.349Z,96706.86
2019-03-28T22:30:52.334Z,96697.39
2019-03-28T22:33:24.169Z,96702.58
2019-03-28T22:35:56.043Z,96698.02
2019-03-28T22:38:28.005Z,96697.48
2019-03-28T22:41:00.007Z,96690.23
2019-03-28T22:43:32.964Z,96685.61
2019-03-28T22:46:05.145Z,96685.92
2019-03-28T22:48:37.093Z,96687.33
2019-03-28T22:51:09.104Z,96684.33
2019-03-28T22:53:42.668Z,96680.52
2019-03-28T22:56:14.629Z,96683.39
2019-03-28T22:58:46.631Z,96676.73
2019-03-28T23:01:18.713Z,96681.39
2019-03-28T23:03:52.344Z,96674.68
2019-03-28T23:06:24.292Z,96678.61
2019-03-28T23:08:56.136Z,96676.63
2019-03-28T23:11:28.216Z,96671.81
2019-03-28T23:14:00.207Z,96668.47
2019-03-28T23:16:32.058Z,96669.61
2019-03-28T23:19:04.315Z,96668.19
2019-03-28T23:21:36.135Z,96664.19
2019-03-28T23:24:08.068Z,96667.86
2019-03-28T23:26:39.979Z,96668.78
2019-03-28T23:29:11.932Z,96657.69
2019-03-28T23:31:44.130Z,96661.68
2019-03-28T23:34:16.119Z,96665.52
2019-03-28T23:36:47.992Z,96659.16
2019-03-28T23:39:21.037Z,96664.48
2019-03-28T23:41:52.929Z,96658.02
2019-03-28T23:44:24.859Z,96659.74
2019-03-28T23:46:56.950Z,96666.13
2019-03-28T23:49:28.953Z,96662.37
2019-03-28T23:52:02.067Z,96663.22
2019-03-28T23:54:34.064Z,96654.58
2019-03-28T23:57:05.984Z,96650.58
2019-03-28T23:59:37.968Z,96647.05
